createdAt,value
2022-08-08T00:01:11.499Z,19.1
2022-08-08T00:02:50.524Z,19.1
2022-08-08T00:03:56.076Z,19.1
2022-08-08T00:04:59.946Z,19.1
2022-08-08T00:06:06.711Z,19.1
2022-08-08T00:07:14.916Z,19.1
2022-08-08T00:08:18.559Z,19.1
2022-08-08T00:09:21.159Z,19.2
2022-08-08T00:10:30.072Z,19.2
2022-08-08T00:12:11.921Z,19.2
2022-08-08T00:15:01.213Z,19.3
2022-08-08T00:16:11.125Z,19.3
2022-08-08T00:17:35.495Z,19.3
2022-08-08T00:19:09.494Z,19.3
2022-08-08T00:20:18.725Z,19.4
2022-08-08T00:21:43.713Z,19.4
2022-08-08T00:22:53.107Z,19.4
2022-08-08T00:23:58.317Z,19.4
2022-08-08T00:25:03.912Z,19.4
2022-08-08T00:26:30.151Z,19.4
2022-08-08T00:27:37.926Z,19.4
2022-08-08T00:28:45.681Z,19.5
2022-08-08T00:29:48.555Z,19.5
2022-08-08T00:32:39.455Z,19.5
2022-08-08T00:34:22.195Z,19.5
2022-08-08T00:35:41.703Z,19.5
2022-08-08T00:37:45.532Z,19.6
2022-08-08T00:41:16.551Z,19.6
2022-08-08T00:43:24.190Z,19.7
2022-08-08T00:45:32.647Z,19.7
2022-08-08T00:47:00.077Z,19.7
2022-08-08T00:48:34.787Z,19.7
2022-08-08T00:50:00.180Z,19.7
2022-08-08T00:51:07.418Z,19.6
2022-08-08T00:52:34.703Z,19.7
2022-08-08T00:54:20.783Z,19.7
2022-08-08T00:56:01.620Z,19.7
2022-08-08T00:57:05.125Z,19.7
2022-08-08T00:58:15.851Z,19.7
2022-08-08T00:59:48.099Z,19.7
2022-08-08T01:01:02.114Z,19.8
2022-08-08T01:04:06.764Z,19.7
2022-08-08T01:06:03.421Z,19.7
2022-08-08T01:07:11.686Z,19.7
2022-08-08T01:08:30.498Z,19.7
2022-08-08T01:09:49.530Z,19.7
2022-08-08T01:10:54.053Z,19.6
2022-08-08T01:11:56.892Z,19.6
2022-08-08T01:13:02.870Z,19.6
2022-08-08T01:14:16.679Z,19.6
2022-08-08T01:16:02.196Z,19.6
2022-08-08T01:17:06.432Z,19.5
2022-08-08T01:18:55.621Z,19.5
2022-08-08T01:20:07.240Z,19.5
2022-08-08T01:22:35.823Z,19.5
2022-08-08T01:24:19.331Z,19.4
2022-08-08T01:25:44.607Z,19.4
2022-08-08T01:26:57.185Z,19.4
2022-08-08T01:28:03.295Z,19.4
2022-08-08T01:29:06.861Z,19.4
2022-08-08T01:30:10.865Z,19.4
2022-08-08T01:32:22.852Z,19.3
2022-08-08T01:34:02.268Z,19.3
2022-08-08T01:35:14.085Z,19.3
2022-08-08T01:36:18.233Z,19.3
2022-08-08T01:38:00.153Z,19.3
2022-08-08T01:39:06.027Z,19.2
2022-08-08T01:40:20.249Z,19.2
2022-08-08T01:41:26.142Z,19.2
2022-08-08T01:42:42.061Z,19.2
2022-08-08T01:43:45.167Z,19.1
2022-08-08T01:44:55.983Z,19.1
2022-08-08T01:46:03.024Z,19.1
2022-08-08T01:48:35.493Z,19.1
2022-08-08T01:49:40.164Z,19.1
2022-08-08T01:50:52.612Z,19.1
2022-08-08T01:56:31.831Z,19
2022-08-08T01:58:14.853Z,19.1
2022-08-08T01:59:20.986Z,19
2022-08-08T02:00:28.886Z,19
2022-08-08T02:02:40.132Z,19
2022-08-08T02:04:02.180Z,19
2022-08-08T02:05:08.015Z,19
2022-08-08T02:06:44.259Z,19
2022-08-08T02:07:54.605Z,19
2022-08-08T02:08:57.491Z,19
2022-08-08T02:10:44.834Z,19
2022-08-08T02:12:04.632Z,19
2022-08-08T02:13:56.811Z,19
2022-08-08T02:15:04.227Z,19
2022-08-08T02:16:07.857Z,19
2022-08-08T02:17:26.066Z,19
2022-08-08T02:19:00.024Z,19
2022-08-08T02:21:22.082Z,19
2022-08-08T02:22:33.876Z,19
2022-08-08T02:24:00.105Z,18.9
2022-08-08T02:25:17.373Z,19
2022-08-08T02:26:23.828Z,18.9
2022-08-08T02:27:44.057Z,19
2022-08-08T02:28:53.988Z,18.9
2022-08-08T02:29:58.497Z,19
2022-08-08T02:32:05.526Z,19
2022-08-08T02:33:23.021Z,18.9
2022-08-08T02:36:17.050Z,18.9
2022-08-08T02:37:59.971Z,19
2022-08-08T02:40:03.989Z,18.9
2022-08-08T02:42:11.554Z,18.9
2022-08-08T02:45:00.264Z,18.8
2022-08-08T02:46:24.475Z,18.8
2022-08-08T02:47:33.193Z,18.8
2022-08-08T02:48:48.728Z,18.8
2022-08-08T02:49:53.663Z,18.8
2022-08-08T02:50:58.724Z,18.8
2022-08-08T02:52:52.951Z,18.8
2022-08-08T02:54:01.254Z,18.8
2022-08-08T02:55:10.688Z,18.8
2022-08-08T02:56:24.973Z,18.8
2022-08-08T02:57:52.760Z,18.8
2022-08-08T02:58:56.537Z,18.7
2022-08-08T03:00:37.826Z,18.7
2022-08-08T03:01:56.222Z,18.7
2022-08-08T03:03:01.913Z,18.7
2022-08-08T03:05:11.960Z,18.6
2022-08-08T03:06:36.851Z,18.6
2022-08-08T03:08:00.370Z,18.6
2022-08-08T03:09:06.353Z,18.6
2022-08-08T03:10:53.729Z,18.6
2022-08-08T03:12:14.681Z,18.6
2022-08-08T03:16:08.503Z,18.5
2022-08-08T03:17:41.471Z,18.5
2022-08-08T03:19:19.890Z,18.4
2022-08-08T03:20:25.403Z,18.4
2022-08-08T03:22:01.176Z,18.4
2022-08-08T03:23:08.008Z,18.5
2022-08-08T03:24:15.768Z,18.4
2022-08-08T03:25:37.531Z,18.4
2022-08-08T03:26:46.885Z,18.3
2022-08-08T03:27:58.804Z,18.3
2022-08-08T03:29:56.816Z,18.3
2022-08-08T03:32:07.302Z,18.2
2022-08-08T03:34:04.749Z,18.2
2022-08-08T03:35:17.605Z,18.2
2022-08-08T03:36:33.978Z,18.2
2022-08-08T03:39:17.163Z,18.2
2022-08-08T03:40:33.724Z,18.1
2022-08-08T03:42:31.799Z,18
2022-08-08T03:43:44.861Z,18
2022-08-08T03:44:56.004Z,18
2022-08-08T03:46:10.646Z,18
2022-08-08T03:47:45.669Z,18
2022-08-08T03:50:03.360Z,18
2022-08-08T03:51:07.465Z,18
2022-08-08T03:52:15.858Z,18
2022-08-08T03:53:50.063Z,18
2022-08-08T03:56:10.290Z,18
2022-08-08T03:58:48.632Z,18
2022-08-08T04:00:20.189Z,18
2022-08-08T04:02:53.086Z,18
2022-08-08T04:04:03.925Z,18
2022-08-08T04:05:13.652Z,18
2022-08-08T04:06:33.315Z,18
2022-08-08T04:07:37.680Z,17.9
2022-08-08T04:08:47.102Z,17.9
2022-08-08T04:10:10.758Z,17.9
2022-08-08T04:11:26.447Z,17.9
2022-08-08T04:13:23.598Z,17.9
2022-08-08T04:14:37.682Z,17.9
2022-08-08T04:16:09.435Z,17.9
2022-08-08T04:18:03.679Z,17.9
2022-08-08T04:19:27.431Z,17.9
2022-08-08T04:20:42.686Z,17.9
2022-08-08T04:21:49.191Z,17.9
2022-08-08T04:23:03.814Z,17.9
2022-08-08T04:24:32.433Z,17.9
2022-08-08T04:25:41.655Z,17.9
2022-08-08T04:27:01.300Z,17.9
2022-08-08T04:28:46.355Z,17.9
2022-08-08T04:30:23.408Z,17.9
2022-08-08T04:32:02.207Z,17.9
2022-08-08T04:33:16.094Z,18
2022-08-08T04:34:43.176Z,18
2022-08-08T04:36:05.574Z,18
2022-08-08T04:37:08.908Z,18
2022-08-08T04:38:26.195Z,18.1
2022-08-08T04:40:13.773Z,18.1
2022-08-08T04:41:23.485Z,18.1
2022-08-08T04:42:27.464Z,18.1
2022-08-08T04:43:58.215Z,18.2
2022-08-08T04:45:02.201Z,18.2
2022-08-08T04:46:07.350Z,18.3
2022-08-08T04:47:13.879Z,18.3
2022-08-08T04:48:22.909Z,18.3
2022-08-08T04:50:24.529Z,18.3
2022-08-08T04:52:04.534Z,18.4
2022-08-08T04:54:43.118Z,18.4
2022-08-08T04:55:58.065Z,18.5
2022-08-08T04:57:02.176Z,18.5
2022-08-08T04:58:17.899Z,18.5
2022-08-08T04:59:43.213Z,18.5
2022-08-08T05:00:53.069Z,18.6
2022-08-08T05:02:03.093Z,18.6
2022-08-08T05:04:12.910Z,18.6
2022-08-08T05:05:55.836Z,18.7
2022-08-08T05:07:16.393Z,18.7
2022-08-08T05:08:30.717Z,18.7
2022-08-08T05:09:42.502Z,18.8
2022-08-08T05:10:47.029Z,18.8
2022-08-08T05:11:58.748Z,18.8
2022-08-08T05:13:18.645Z,18.9
2022-08-08T05:14:25.663Z,18.9
2022-08-08T05:17:11.115Z,18.9
2022-08-08T05:18:28.320Z,19.1
2022-08-08T05:20:16.798Z,19.2
2022-08-08T05:21:23.959Z,19.3
2022-08-08T05:23:04.382Z,19.4
2022-08-08T05:24:11.556Z,19.4
2022-08-08T05:25:21.872Z,19.5
2022-08-08T05:26:28.611Z,19.5
2022-08-08T05:27:46.901Z,19.5
2022-08-08T05:29:10.800Z,19.6
2022-08-08T05:30:14.962Z,19.6
2022-08-08T05:32:09.191Z,19.7
2022-08-08T05:33:18.808Z,19.8
2022-08-08T05:34:27.956Z,19.8
2022-08-08T05:35:41.988Z,19.9
2022-08-08T05:36:47.037Z,20
2022-08-08T05:38:01.022Z,20
2022-08-08T05:39:09.242Z,20.1
2022-08-08T05:40:17.898Z,20.1
2022-08-08T05:41:56.617Z,20.2
2022-08-08T05:43:38.898Z,20.3
2022-08-08T05:46:07.975Z,20.4
2022-08-08T05:47:22.204Z,20.5
2022-08-08T05:48:38.481Z,20.6
2022-08-08T05:50:00.452Z,20.7
2022-08-08T05:51:18.348Z,20.8
2022-08-08T05:52:40.384Z,20.9
2022-08-08T05:55:07.346Z,21
2022-08-08T05:56:21.037Z,21.2
2022-08-08T05:58:34.031Z,21.2
2022-08-08T06:00:27.125Z,21.4
2022-08-08T06:02:01.547Z,21.4
2022-08-08T06:03:05.398Z,21.5
2022-08-08T06:04:25.241Z,21.5
2022-08-08T06:05:37.694Z,21.6
2022-08-08T06:06:51.089Z,21.7
2022-08-08T06:08:36.091Z,21.7
2022-08-08T06:10:11.274Z,21.8
2022-08-08T06:11:30.858Z,21.9
2022-08-08T06:12:34.631Z,21.9
2022-08-08T06:13:50.693Z,22
2022-08-08T06:15:00.008Z,22
2022-08-08T06:16:08.481Z,22
2022-08-08T06:18:21.383Z,22.1
2022-08-08T06:19:36.649Z,22.1
2022-08-08T06:20:57.710Z,22.2
2022-08-08T06:22:33.800Z,22.2
2022-08-08T06:24:31.186Z,22.2
2022-08-08T06:26:53.576Z,22.3
2022-08-08T06:27:58.023Z,22.4
2022-08-08T06:30:02.087Z,22.4
2022-08-08T06:31:17.546Z,22.5
2022-08-08T06:32:28.019Z,22.5
2022-08-08T06:34:29.359Z,22.6
2022-08-08T06:36:10.918Z,22.7
2022-08-08T06:37:44.813Z,22.7
2022-08-08T06:39:00.206Z,22.8
2022-08-08T06:40:18.109Z,22.9
2022-08-08T06:41:23.396Z,22.9
2022-08-08T06:42:36.918Z,23
2022-08-08T06:43:39.274Z,23
2022-08-08T06:44:45.205Z,23.1
2022-08-08T06:45:50.661Z,23.1
2022-08-08T06:46:55.681Z,23.2
2022-08-08T06:48:08.751Z,23.2
2022-08-08T06:49:15.765Z,23.2
2022-08-08T06:50:39.614Z,23.3
2022-08-08T06:51:58.888Z,23.3
2022-08-08T06:53:20.382Z,23.4
2022-08-08T06:54:26.701Z,23.3
2022-08-08T06:56:00.593Z,23.4
2022-08-08T06:57:16.081Z,23.5
2022-08-08T06:58:21.488Z,23.5
2022-08-08T06:59:27.530Z,23.5
2022-08-08T07:02:33.214Z,23.6
2022-08-08T07:04:53.540Z,23.7
2022-08-08T07:06:04.047Z,23.7
2022-08-08T07:07:13.872Z,23.8
2022-08-08T07:08:20.641Z,23.8
2022-08-08T07:10:01.798Z,23.8
2022-08-08T07:11:30.396Z,23.9
2022-08-08T07:12:57.594Z,23.9
2022-08-08T07:14:03.770Z,24
2022-08-08T07:16:04.121Z,24
2022-08-08T07:17:40.440Z,24
2022-08-08T07:19:47.352Z,24.1
2022-08-08T07:20:52.850Z,24.1
2022-08-08T07:22:20.394Z,24.2
2022-08-08T07:24:04.518Z,24.2
2022-08-08T07:25:08.946Z,24.3
2022-08-08T07:26:18.101Z,24.3
2022-08-08T07:28:12.436Z,24.3
2022-08-08T07:30:28.693Z,24.3
2022-08-08T07:31:37.453Z,24.4
2022-08-08T07:32:42.589Z,24.4
2022-08-08T07:34:02.459Z,24.5
2022-08-08T07:35:15.238Z,24.5
2022-08-08T07:36:22.232Z,24.5
2022-08-08T07:38:26.030Z,24.5
2022-08-08T07:40:02.953Z,24.6
2022-08-08T07:41:25.154Z,24.6
2022-08-08T07:42:37.145Z,24.6
2022-08-08T07:43:53.549Z,24.7
2022-08-08T07:44:57.159Z,24.7
2022-08-08T07:46:32.073Z,24.7
2022-08-08T07:47:52.044Z,24.7
2022-08-08T07:48:55.832Z,24.8
2022-08-08T07:50:00.206Z,24.8
2022-08-08T07:51:07.421Z,24.8
2022-08-08T07:52:57.970Z,24.8
2022-08-08T07:54:05.349Z,24.9
2022-08-08T07:55:10.245Z,24.9
2022-08-08T07:56:16.318Z,25
2022-08-08T07:57:51.440Z,25
2022-08-08T07:58:55.849Z,25
2022-08-08T08:00:03.649Z,25.1
2022-08-08T08:01:11.133Z,25.1
2022-08-08T08:02:44.641Z,25.1
2022-08-08T08:03:53.093Z,25.1
2022-08-08T08:05:00.318Z,25.2
2022-08-08T08:06:06.083Z,25.2
2022-08-08T08:07:09.783Z,25.2
2022-08-08T08:08:20.507Z,25.2
2022-08-08T08:09:26.773Z,25.2
2022-08-08T08:10:51.776Z,25.3
2022-08-08T08:11:57.509Z,25.4
2022-08-08T08:13:02.766Z,25.4
2022-08-08T08:14:21.557Z,25.4
2022-08-08T08:15:25.151Z,25.4
2022-08-08T08:16:27.996Z,25.5
2022-08-08T08:17:58.802Z,25.5
2022-08-08T08:19:01.933Z,25.5
2022-08-08T08:20:04.945Z,25.5
2022-08-08T08:21:19.887Z,25.5
2022-08-08T08:23:10.200Z,25.6
2022-08-08T08:24:19.195Z,25.7
2022-08-08T08:26:01.050Z,25.7
2022-08-08T08:27:10.822Z,25.7
2022-08-08T08:28:26.835Z,25.8
2022-08-08T08:29:31.005Z,25.8
2022-08-08T08:30:35.423Z,25.7
2022-08-08T08:31:57.534Z,25.8
2022-08-08T08:33:13.036Z,25.8
2022-08-08T08:34:16.286Z,25.8
2022-08-08T08:36:29.663Z,25.8
2022-08-08T08:38:20.458Z,25.9
2022-08-08T08:40:03.848Z,26
2022-08-08T08:41:25.503Z,26.1
2022-08-08T08:42:38.062Z,26.1
2022-08-08T08:43:46.669Z,26.1
2022-08-08T08:44:52.055Z,26.2
2022-08-08T08:46:06.260Z,26.2
2022-08-08T08:47:14.274Z,26.2
2022-08-08T08:48:26.179Z,26.3
2022-08-08T08:49:43.327Z,26.3
2022-08-08T08:50:46.267Z,26.3
2022-08-08T08:51:53.564Z,26.4
2022-08-08T08:54:01.854Z,26.4
2022-08-08T08:55:07.369Z,26.5
2022-08-08T08:56:24.066Z,26.6
2022-08-08T08:57:35.293Z,26.6
2022-08-08T08:58:42.092Z,26.7
2022-08-08T09:00:19.822Z,26.8
2022-08-08T09:01:28.635Z,26.9
2022-08-08T09:02:35.164Z,26.9
2022-08-08T09:03:53.018Z,27
2022-08-08T09:04:59.255Z,26.7
2022-08-08T09:06:01.886Z,26.7
2022-08-08T09:07:14.894Z,26.7
2022-08-08T09:08:24.323Z,26.8
2022-08-08T09:09:59.042Z,26.8
2022-08-08T09:11:09.544Z,26.8
2022-08-08T09:12:15.402Z,26.8
2022-08-08T09:13:28.829Z,26.9
2022-08-08T09:14:35.320Z,27
2022-08-08T09:15:49.349Z,27
2022-08-08T09:17:58.158Z,27
2022-08-08T09:19:13.269Z,27.2
2022-08-08T09:22:08.317Z,27.3
2022-08-08T09:23:38.412Z,27.6
2022-08-08T09:24:47.309Z,27.8
2022-08-08T09:26:05.871Z,27.8
2022-08-08T09:27:56.565Z,27.8
2022-08-08T09:29:10.490Z,27.9
2022-08-08T09:30:26.986Z,27.9
2022-08-08T09:31:58.466Z,28
2022-08-08T09:34:37.949Z,28
2022-08-08T09:35:58.948Z,28.1
2022-08-08T09:38:18.148Z,28
2022-08-08T09:39:22.152Z,28.1
2022-08-08T09:40:58.599Z,28.1
2022-08-08T09:42:26.798Z,28.2
2022-08-08T09:44:34.688Z,28.2
2022-08-08T09:46:25.905Z,28.1
2022-08-08T09:48:43.270Z,28.1
2022-08-08T09:50:14.310Z,28
2022-08-08T09:51:17.774Z,28.1
2022-08-08T09:54:01.400Z,28.1
2022-08-08T09:56:28.004Z,28
2022-08-08T09:57:59.555Z,28.2
2022-08-08T10:00:57.333Z,28.3
2022-08-08T10:02:17.099Z,28.7
2022-08-08T10:03:22.746Z,28.9
2022-08-08T10:04:53.705Z,29
2022-08-08T10:06:02.955Z,29.1
2022-08-08T10:07:17.004Z,29.3
2022-08-08T10:08:31.096Z,29.4
2022-08-08T10:10:07.889Z,29.6
2022-08-08T10:12:57.682Z,29.8
2022-08-08T10:14:43.747Z,30
2022-08-08T10:16:06.125Z,30.1
2022-08-08T10:18:26.768Z,30.1
2022-08-08T10:20:04.288Z,30
2022-08-08T10:21:51.644Z,29.9
2022-08-08T10:22:57.095Z,29.9
2022-08-08T10:24:01.433Z,29.9
2022-08-08T10:25:06.202Z,29.9
2022-08-08T10:27:00.577Z,29.9
2022-08-08T10:28:05.977Z,29.8
2022-08-08T10:29:25.055Z,29.8
2022-08-08T10:31:05.122Z,29.6
2022-08-08T10:32:14.576Z,29.7
2022-08-08T10:34:21.940Z,29.7
2022-08-08T10:36:24.125Z,29.6
2022-08-08T10:37:36.889Z,29.4
2022-08-08T10:38:47.287Z,29.4
2022-08-08T10:39:56.636Z,29.3
2022-08-08T10:41:00.731Z,29.4
2022-08-08T10:42:27.652Z,29.3
2022-08-08T10:43:37.900Z,29.4
2022-08-08T10:44:55.440Z,29.3
2022-08-08T10:46:03.944Z,29.4
2022-08-08T10:47:56.489Z,29.6
2022-08-08T10:49:03.117Z,29.7
2022-08-08T10:50:08.269Z,29.8
2022-08-08T10:51:11.023Z,29.8
2022-08-08T10:52:31.266Z,29.9
2022-08-08T10:54:03.481Z,29.8
2022-08-08T10:55:09.747Z,30
2022-08-08T10:56:43.784Z,30
2022-08-08T10:57:56.298Z,30.1
2022-08-08T10:58:59.129Z,30.1
2022-08-08T11:00:01.739Z,30.1
2022-08-08T11:01:17.199Z,30
2022-08-08T11:02:30.148Z,30
2022-08-08T11:04:06.112Z,30.1
2022-08-08T11:05:23.968Z,30.2
2022-08-08T11:06:26.593Z,30.2
2022-08-08T11:08:54.204Z,30.4
2022-08-08T11:09:57.282Z,30.8
2022-08-08T11:12:15.088Z,30.7
2022-08-08T11:13:34.442Z,30.7
2022-08-08T11:14:46.034Z,30.8
2022-08-08T11:16:35.187Z,30.8
2022-08-08T11:18:06.721Z,31
2022-08-08T11:19:20.030Z,31
2022-08-08T11:20:29.474Z,31
2022-08-08T11:21:38.712Z,31
2022-08-08T11:22:42.320Z,30.9
2022-08-08T11:24:04.360Z,30.8
2022-08-08T11:25:19.227Z,30.7
2022-08-08T11:27:00.408Z,30.6
2022-08-08T11:28:43.172Z,30.6
2022-08-08T11:30:32.579Z,30.7
2022-08-08T11:31:50.707Z,30.7
2022-08-08T11:32:55.353Z,30.7
2022-08-08T11:35:37.921Z,30.8
2022-08-08T11:36:59.528Z,30.9
2022-08-08T11:38:57.210Z,31
2022-08-08T11:40:04.111Z,31.1
2022-08-08T11:41:06.680Z,31
2022-08-08T11:42:11.275Z,30.9
2022-08-08T11:43:15.542Z,30.9
2022-08-08T11:44:30.674Z,30.8
2022-08-08T11:46:20.225Z,30.6
2022-08-08T11:48:10.610Z,30.5
2022-08-08T11:49:31.941Z,30.4
2022-08-08T11:50:34.991Z,30.3
2022-08-08T11:51:55.192Z,30.3
2022-08-08T11:53:00.557Z,30.2
2022-08-08T11:54:46.817Z,30.1
2022-08-08T11:55:51.159Z,30
2022-08-08T11:57:04.903Z,29.7
2022-08-08T11:58:32.197Z,29.6
2022-08-08T12:00:07.587Z,29.5
2022-08-08T12:01:23.554Z,29.6
2022-08-08T12:02:36.535Z,29.5
2022-08-08T12:03:48.869Z,29.5
2022-08-08T12:04:52.385Z,29.5
2022-08-08T12:05:54.953Z,29.5
2022-08-08T12:07:18.103Z,29.5
2022-08-08T12:08:30.485Z,29.4
2022-08-08T12:10:11.819Z,29.5
2022-08-08T12:11:32.216Z,29.5
2022-08-08T12:12:56.406Z,29.5
2022-08-08T12:14:12.177Z,29.6
2022-08-08T12:15:15.272Z,29.7
2022-08-08T12:16:19.229Z,29.9
2022-08-08T12:17:22.817Z,29.9
2022-08-08T12:18:44.308Z,29.9
2022-08-08T12:19:55.959Z,30
2022-08-08T12:21:01.311Z,29.9
2022-08-08T12:22:21.608Z,30.1
2022-08-08T12:24:03.946Z,30.3
2022-08-08T12:25:11.152Z,30.4
2022-08-08T12:26:41.893Z,30.3
2022-08-08T12:27:49.783Z,30
2022-08-08T12:28:54.818Z,30
2022-08-08T12:30:04.947Z,30.3
2022-08-08T12:31:55.057Z,30.4
2022-08-08T12:32:59.001Z,30.6
2022-08-08T12:34:09.406Z,30.8
2022-08-08T12:35:19.841Z,31.1
2022-08-08T12:36:36.223Z,31.4
2022-08-08T12:38:03.379Z,31.6
2022-08-08T12:39:11.460Z,31.6
2022-08-08T12:40:26.393Z,31.8
2022-08-08T12:42:07.212Z,32
2022-08-08T12:44:03.393Z,32.4
2022-08-08T12:46:04.883Z,32.7
2022-08-08T12:47:59.120Z,32.8
2022-08-08T12:49:48.265Z,32.7
2022-08-08T12:50:51.171Z,32.6
2022-08-08T12:52:02.427Z,32.6
2022-08-08T12:53:04.846Z,32.5
2022-08-08T12:54:28.771Z,32.3
2022-08-08T12:56:24.911Z,32.3
2022-08-08T12:57:57.703Z,32.3
2022-08-08T12:59:00.743Z,32.3
2022-08-08T13:00:39.038Z,32.3
2022-08-08T13:01:51.352Z,31.9
2022-08-08T13:03:02.348Z,31.9
2022-08-08T13:04:06.122Z,31.8
2022-08-08T13:06:14.732Z,31.8
2022-08-08T13:08:07.563Z,31.8
2022-08-08T13:09:12.562Z,31.6
2022-08-08T13:10:29.106Z,31.7
2022-08-08T13:12:31.429Z,31.7
2022-08-08T13:13:40.270Z,32.1
2022-08-08T13:14:54.976Z,32.2
2022-08-08T13:15:58.743Z,32.3
2022-08-08T13:17:02.561Z,32.5
2022-08-08T13:18:28.109Z,32.5
2022-08-08T13:20:10.747Z,32.4
2022-08-08T13:21:17.660Z,32.5
2022-08-08T13:22:26.721Z,32.3
2022-08-08T13:23:49.900Z,32.4
2022-08-08T13:25:01.530Z,32.7
2022-08-08T13:26:18.897Z,32.8
2022-08-08T13:27:36.051Z,32.9
2022-08-08T13:28:50.266Z,33.1
2022-08-08T13:29:54.634Z,33
2022-08-08T13:30:58.099Z,33.2
2022-08-08T13:32:03.175Z,33.3
2022-08-08T13:33:06.665Z,33.3
2022-08-08T13:34:37.030Z,33.4
2022-08-08T13:35:51.628Z,33.5
2022-08-08T13:37:00.085Z,33.5
2022-08-08T13:38:14.605Z,33.4
2022-08-08T13:39:22.421Z,33.4
2022-08-08T13:40:29.601Z,33.3
2022-08-08T13:42:01.971Z,33.2
2022-08-08T13:43:05.888Z,33
2022-08-08T13:44:13.141Z,33
2022-08-08T13:45:31.075Z,33
2022-08-08T13:46:34.145Z,33
2022-08-08T13:47:37.295Z,32.9
2022-08-08T13:50:44.144Z,32.7
2022-08-08T13:52:55.615Z,32.6
2022-08-08T13:54:04.147Z,32.9
2022-08-08T13:55:07.708Z,33
2022-08-08T13:56:13.646Z,33
2022-08-08T13:58:07.555Z,33
2022-08-08T13:59:24.339Z,32.9
2022-08-08T14:00:37.452Z,32.8
2022-08-08T14:02:12.787Z,32.7
2022-08-08T14:04:00.516Z,32.5
2022-08-08T14:05:28.557Z,32.4
2022-08-08T14:06:38.735Z,32.3
2022-08-08T14:07:57.103Z,32.3
2022-08-08T14:10:39.641Z,32.5
2022-08-08T14:11:49.965Z,32.5
2022-08-08T14:12:52.881Z,32.5
2022-08-08T14:14:09.815Z,32.4
2022-08-08T14:15:20.673Z,32.4
2022-08-08T14:16:28.700Z,32.2
2022-08-08T14:18:55.006Z,32.1
2022-08-08T14:20:58.745Z,31.9
2022-08-08T14:22:07.729Z,31.9
2022-08-08T14:24:10.932Z,31.8
2022-08-08T14:25:24.479Z,31.8
2022-08-08T14:26:36.802Z,31.8
2022-08-08T14:28:05.413Z,31.7
2022-08-08T14:29:41.093Z,31.6
2022-08-08T14:30:51.757Z,31.4
2022-08-08T14:32:32.444Z,31.3
2022-08-08T14:33:38.100Z,31.2
2022-08-08T14:34:46.570Z,31
2022-08-08T14:35:55.967Z,31
2022-08-08T14:36:58.762Z,31
2022-08-08T14:38:58.564Z,31
2022-08-08T14:40:16.069Z,31.1
2022-08-08T14:41:56.971Z,31.2
2022-08-08T14:44:28.051Z,31.2
2022-08-08T14:46:07.978Z,31.3
2022-08-08T14:47:23.584Z,31.2
2022-08-08T14:48:40.283Z,31.3
2022-08-08T14:50:39.908Z,31.4
2022-08-08T14:51:54.645Z,31.7
2022-08-08T14:52:58.569Z,31.9
2022-08-08T14:54:02.058Z,32
2022-08-08T14:55:05.514Z,32.1
2022-08-08T14:56:12.526Z,32.3
2022-08-08T14:58:11.501Z,32.4
2022-08-08T14:59:59.587Z,32.5
2022-08-08T15:01:41.703Z,32.4
2022-08-08T15:03:19.186Z,32.2
2022-08-08T15:04:32.519Z,32
2022-08-08T15:06:00.905Z,31.8
2022-08-08T15:07:41.302Z,31.7
2022-08-08T15:08:59.176Z,31.5
2022-08-08T15:10:04.158Z,31.6
2022-08-08T15:11:20.907Z,31.7
2022-08-08T15:12:30.085Z,32
2022-08-08T15:14:05.588Z,32.2
2022-08-08T15:16:05.498Z,32.5
2022-08-08T15:17:19.470Z,32.5
2022-08-08T15:18:31.623Z,32.5
2022-08-08T15:19:34.468Z,32.5
2022-08-08T15:20:39.024Z,32.5
2022-08-08T15:21:45.366Z,32.3
2022-08-08T15:22:48.509Z,32.2
2022-08-08T15:23:54.969Z,32
2022-08-08T15:25:01.642Z,31.8
2022-08-08T15:26:35.853Z,31.7
2022-08-08T15:28:35.865Z,31.5
2022-08-08T15:29:39.856Z,31.6
2022-08-08T15:30:52.767Z,31.5
2022-08-08T15:32:32.947Z,31.4
2022-08-08T15:34:03.875Z,31.1
2022-08-08T15:35:08.512Z,31
2022-08-08T15:36:19.393Z,30.9
2022-08-08T15:37:34.643Z,30.7
2022-08-08T15:38:51.332Z,30.7
2022-08-08T15:40:00.361Z,30.7
2022-08-08T15:41:04.981Z,30.8
2022-08-08T15:42:33.893Z,30.8
2022-08-08T15:44:04.017Z,30.9
2022-08-08T15:45:23.186Z,31
2022-08-08T15:46:37.059Z,31.1
2022-08-08T15:48:16.232Z,31.1
2022-08-08T15:49:40.712Z,31.3
2022-08-08T15:50:45.925Z,31.4
2022-08-08T15:51:56.047Z,31.4
2022-08-08T15:52:58.989Z,31.5
2022-08-08T15:54:02.015Z,31.4
2022-08-08T15:55:04.980Z,31.4
2022-08-08T15:56:20.966Z,31.4
2022-08-08T15:57:24.957Z,31.4
2022-08-08T15:58:33.412Z,31.4
2022-08-08T16:00:30.263Z,31.1
2022-08-08T16:02:02.223Z,31
2022-08-08T16:03:06.231Z,30.8
2022-08-08T16:04:15.615Z,30.8
2022-08-08T16:06:04.009Z,30.7
2022-08-08T16:07:08.374Z,30.6
2022-08-08T16:08:20.854Z,30.6
2022-08-08T16:13:53.130Z,30.5
2022-08-08T16:14:59.722Z,30.4
2022-08-08T16:16:22.861Z,30.2
2022-08-08T16:18:13.657Z,30
2022-08-08T16:19:27.018Z,29.9
2022-08-08T16:20:32.841Z,29.9
2022-08-08T16:21:49.405Z,29.9
2022-08-08T16:22:57.773Z,29.9
2022-08-08T16:24:00.398Z,29.9
2022-08-08T16:25:08.515Z,29.8
2022-08-08T16:26:37.068Z,29.8
2022-08-08T16:27:58.376Z,29.7
2022-08-08T16:29:09.987Z,29.7
2022-08-08T16:30:40.518Z,29.6
2022-08-08T16:31:51.843Z,29.6
2022-08-08T16:32:56.998Z,29.5
2022-08-08T16:34:04.170Z,29.4
2022-08-08T16:35:08.073Z,29.4
2022-08-08T16:36:34.963Z,29.3
2022-08-08T16:37:48.017Z,29.3
2022-08-08T16:39:00.284Z,29.2
2022-08-08T16:40:13.095Z,29
2022-08-08T16:41:32.093Z,29
2022-08-08T16:42:42.393Z,28.9
2022-08-08T16:43:55.648Z,28.9
2022-08-08T16:46:46.424Z,28.7
2022-08-08T16:47:49.448Z,28.5
2022-08-08T16:48:52.067Z,28.5
2022-08-08T16:49:57.058Z,28.5
2022-08-08T16:51:08.900Z,28.4
2022-08-08T16:58:18.443Z,28.1
2022-08-08T16:59:58.789Z,28
2022-08-08T17:01:10.922Z,28
2022-08-08T17:02:46.506Z,27.9
2022-08-08T17:04:04.774Z,27.8
2022-08-08T17:05:07.663Z,27.7
2022-08-08T17:06:44.882Z,27.8
2022-08-08T17:07:53.004Z,27.7
2022-08-08T17:08:55.226Z,27.6
2022-08-08T17:10:01.357Z,27.6
2022-08-08T17:11:15.501Z,27.5
2022-08-08T17:12:32.472Z,27.6
2022-08-08T17:14:03.077Z,27.5
2022-08-08T17:15:23.650Z,27.5
2022-08-08T17:16:31.339Z,27.5
2022-08-08T17:18:17.185Z,27.4
2022-08-08T17:19:24.587Z,27.4
2022-08-08T17:20:30.358Z,27.3
2022-08-08T17:21:34.827Z,27.4
2022-08-08T17:22:43.721Z,27.3
2022-08-08T17:25:05.522Z,27.2
2022-08-08T17:26:30.338Z,27.1
2022-08-08T17:27:54.339Z,27.1
2022-08-08T17:29:25.508Z,27
2022-08-08T17:30:30.610Z,27
2022-08-08T17:31:50.469Z,27
2022-08-08T17:36:32.207Z,27
2022-08-08T17:37:38.783Z,26.9
2022-08-08T17:38:44.299Z,26.8
2022-08-08T17:40:17.103Z,26.8
2022-08-08T17:41:48.827Z,26.8
2022-08-08T17:43:12.856Z,26.8
2022-08-08T17:44:18.424Z,26.8
2022-08-08T17:45:32.977Z,26.7
2022-08-08T17:46:39.777Z,26.7
2022-08-08T17:47:54.839Z,26.7
2022-08-08T17:48:59.619Z,26.7
2022-08-08T17:50:05.611Z,26.7
2022-08-08T17:51:11.574Z,26.6
2022-08-08T17:52:26.043Z,26.6
2022-08-08T17:53:58.691Z,26.6
2022-08-08T17:56:09.981Z,26.5
2022-08-08T17:57:16.241Z,26.5
2022-08-08T17:58:20.743Z,26.5
2022-08-08T17:59:48.374Z,26.4
2022-08-08T18:01:11.125Z,26.4
2022-08-08T18:02:30.638Z,26.3
2022-08-08T18:03:35.426Z,26.3
2022-08-08T18:04:53.116Z,26.3
2022-08-08T18:05:55.838Z,26.3
2022-08-08T18:06:59.058Z,26.3
2022-08-08T18:08:06.059Z,26.3
2022-08-08T18:09:12.352Z,26.3
2022-08-08T18:10:18.832Z,26.3
2022-08-08T18:11:23.093Z,26.2
2022-08-08T18:12:26.279Z,26.2
2022-08-08T18:13:43.442Z,26.1
2022-08-08T18:14:50.374Z,26.1
2022-08-08T18:16:07.174Z,26.1
2022-08-08T18:18:36.110Z,26.1
2022-08-08T18:22:00.679Z,26
2022-08-08T18:23:59.716Z,25.9
2022-08-08T18:25:07.224Z,25.9
2022-08-08T18:26:11.152Z,26
2022-08-08T18:27:19.342Z,25.9
2022-08-08T18:28:27.207Z,25.9
2022-08-08T18:29:57.786Z,25.8
2022-08-08T18:31:12.532Z,25.9
2022-08-08T18:32:16.240Z,25.9
2022-08-08T18:34:29.138Z,25.9
2022-08-08T18:35:51.160Z,25.8
2022-08-08T18:37:35.345Z,25.8
2022-08-08T18:38:53.549Z,25.7
2022-08-08T18:39:56.562Z,25.8
2022-08-08T18:41:03.537Z,25.7
2022-08-08T18:42:18.592Z,25.7
2022-08-08T18:43:42.451Z,25.7
2022-08-08T18:44:59.876Z,25.7
2022-08-08T18:48:00.820Z,25.7
2022-08-08T18:49:59.895Z,25.7
2022-08-08T18:51:56.074Z,25.6
2022-08-08T18:52:59.357Z,25.6
2022-08-08T18:54:31.627Z,25.5
2022-08-08T18:55:35.576Z,25.5
2022-08-08T18:56:39.893Z,25.5
2022-08-08T18:57:47.701Z,25.5
2022-08-08T18:58:52.018Z,25.5
2022-08-08T18:59:54.533Z,25.5
2022-08-08T19:00:57.984Z,25.4
2022-08-08T19:02:31.625Z,25.4
2022-08-08T19:04:16.405Z,25.4
2022-08-08T19:05:23.827Z,25.4
2022-08-08T19:06:56.185Z,25.4
2022-08-08T19:08:04.443Z,25.4
2022-08-08T19:09:16.423Z,25.3
2022-08-08T19:11:28.331Z,25.3
2022-08-08T19:12:53.937Z,25.3
2022-08-08T19:13:58.765Z,25.3
2022-08-08T19:15:01.744Z,25.3
2022-08-08T19:16:20.862Z,25.3